createdAt,value
2022-09-01T00:01:51.058Z,48.50
2022-09-01T00:04:21.627Z,48.15
2022-09-01T00:06:50.755Z,48.00
2022-09-01T00:09:20.458Z,47.97
2022-09-01T00:11:52.474Z,48.30
2022-09-01T00:14:29.481Z,48.54
2022-09-01T00:16:58.529Z,48.41
2022-09-01T00:19:26.332Z,47.90
2022-09-01T00:21:55.214Z,47.58
2022-09-01T00:24:25.988Z,46.90
2022-09-01T00:26:54.293Z,47.26
2022-09-01T00:29:22.034Z,47.23
2022-09-01T00:31:50.220Z,48.16
2022-09-01T00:34:18.302Z,48.02
2022-09-01T00:36:45.897Z,47.44
2022-09-01T00:39:16.715Z,47.69
2022-09-01T00:41:46.950Z,47.67
2022-09-01T00:44:16.931Z,47.50
2022-09-01T00:46:49.848Z,47.71
2022-09-01T00:49:23.608Z,47.56
2022-09-01T00:51:56.368Z,47.23
2022-09-01T00:54:29.927Z,47.92
2022-09-01T00:56:58.942Z,47.57
2022-09-01T00:59:28.865Z,48.33
2022-09-01T01:01:57.174Z,48.93
2022-09-01T01:04:25.527Z,48.67
2022-09-01T01:07:02.701Z,48.54
2022-09-01T01:09:35.456Z,48.82
2022-09-01T01:12:06.618Z,48.77
2022-09-01T01:14:39.603Z,48.50
2022-09-01T01:17:07.628Z,48.61
2022-09-01T01:20:00.692Z,49.57
2022-09-01T01:22:54.134Z,50.24
2022-09-01T01:25:23.962Z,51.05
2022-09-01T01:27:52.154Z,50.87
2022-09-01T01:30:23.617Z,51.58
2022-09-01T01:32:51.846Z,51.37
2022-09-01T01:35:21.771Z,51.70
2022-09-01T01:37:49.316Z,52.11
2022-09-01T01:40:22.028Z,52.17
2022-09-01T01:42:53.509Z,51.73
2022-09-01T01:45:24.188Z,51.26
2022-09-01T01:47:54.022Z,51.71
2022-09-01T01:50:22.782Z,51.68
2022-09-01T01:52:58.105Z,52.10
2022-09-01T01:55:28.817Z,51.41
2022-09-01T01:57:58.204Z,51.91
2022-09-01T02:00:30.362Z,51.71
2022-09-01T02:02:58.826Z,52.27
2022-09-01T02:05:28.788Z,52.27
2022-09-01T02:08:01.712Z,52.01
2022-09-01T02:10:31.895Z,51.66
2022-09-01T02:13:04.674Z,52.33
2022-09-01T02:15:43.605Z,52.26
2022-09-01T02:18:14.117Z,53.29
2022-09-01T02:20:42.398Z,53.30
2022-09-01T02:23:11.575Z,53.21
2022-09-01T02:26:05.156Z,53.28
2022-09-01T02:28:36.740Z,52.95
2022-09-01T02:31:08.802Z,52.23
2022-09-01T02:33:39.075Z,52.42
2022-09-01T02:36:10.394Z,52.29
2022-09-01T02:38:41.785Z,52.59
2022-09-01T02:41:09.842Z,52.64
2022-09-01T02:43:39.917Z,53.48
2022-09-01T02:46:07.757Z,52.84
2022-09-01T02:48:38.022Z,53.13
2022-09-01T02:51:08.164Z,53.22
2022-09-01T02:53:37.400Z,53.64
2022-09-01T02:56:09.491Z,53.31
2022-09-01T02:58:45.923Z,53.72
2022-09-01T03:01:22.600Z,53.13
2022-09-01T03:03:51.249Z,53.98
2022-09-01T03:06:23.911Z,54.08
2022-09-01T03:08:52.267Z,54.13
2022-09-01T03:11:20.194Z,54.13
2022-09-01T03:13:53.092Z,54.13
2022-09-01T03:16:22.373Z,53.98
2022-09-01T03:18:50.552Z,53.50
2022-09-01T03:21:19.226Z,53.63
2022-09-01T03:23:47.647Z,53.83
2022-09-01T03:26:18.543Z,53.95
2022-09-01T03:28:46.808Z,54.05
2022-09-01T03:31:17.372Z,54.49
2022-09-01T03:33:45.048Z,54.28
2022-09-01T03:36:20.038Z,53.94
2022-09-01T03:38:48.597Z,53.86
2022-09-01T03:41:18.114Z,53.84
2022-09-01T03:43:48.430Z,54.26
2022-09-01T03:46:21.497Z,54.11
2022-09-01T03:48:50.975Z,54.39
2022-09-01T03:51:22.125Z,54.72
2022-09-01T03:53:50.758Z,54.01
2022-09-01T03:56:18.320Z,55.06
2022-09-01T03:58:47.215Z,55.29
2022-09-01T04:01:17.286Z,55.04
2022-09-01T04:03:48.881Z,54.69
2022-09-01T04:06:20.326Z,55.90
2022-09-01T04:08:48.261Z,56.02
2022-09-01T04:11:18.969Z,55.70
2022-09-01T04:13:47.415Z,55.81
2022-09-01T04:16:35.641Z,55.66
2022-09-01T04:19:09.182Z,54.68
2022-09-01T04:21:38.285Z,54.63
2022-09-01T04:24:06.255Z,55.23
2022-09-01T04:26:33.849Z,55.69
2022-09-01T04:29:02.185Z,55.69
2022-09-01T04:31:31.601Z,55.48
2022-09-01T04:34:13.670Z,54.87
2022-09-01T04:36:43.568Z,55.17
2022-09-01T04:39:12.339Z,55.10
2022-09-01T04:41:46.198Z,55.42
2022-09-01T04:44:16.701Z,55.43
2022-09-01T04:46:48.277Z,54.98
2022-09-01T04:49:19.551Z,54.58
2022-09-01T04:51:53.278Z,54.58
2022-09-01T04:54:22.613Z,54.79
2022-09-01T04:56:54.874Z,54.27
2022-09-01T04:59:24.726Z,54.07
2022-09-01T05:01:57.315Z,54.75
2022-09-01T05:04:28.332Z,54.73
2022-09-01T05:06:59.658Z,54.05
2022-09-01T05:09:28.946Z,54.40
2022-09-01T05:11:57.888Z,54.23
2022-09-01T05:14:25.993Z,54.30
2022-09-01T05:16:59.406Z,54.52
2022-09-01T05:19:29.010Z,55.14
2022-09-01T05:21:57.878Z,55.38
2022-09-01T05:24:32.066Z,55.41
2022-09-01T05:27:00.368Z,55.58
2022-09-01T05:29:28.870Z,54.99
2022-09-01T05:31:58.779Z,54.81
2022-09-01T05:34:27.924Z,55.54
2022-09-01T05:36:58.133Z,55.24
2022-09-01T05:39:26.430Z,55.37
2022-09-01T05:41:54.627Z,55.30
2022-09-01T05:44:23.685Z,55.02
2022-09-01T05:46:51.547Z,54.63
2022-09-01T05:49:20.745Z,55.13
2022-09-01T05:51:51.638Z,55.07
2022-09-01T05:54:23.073Z,54.89
2022-09-01T05:56:53.403Z,54.35
2022-09-01T05:59:24.868Z,55.05
2022-09-01T06:01:54.206Z,55.42
2022-09-01T06:04:24.722Z,54.95
2022-09-01T06:07:10.352Z,54.74
2022-09-01T06:09:42.645Z,55.55
2022-09-01T06:12:17.182Z,54.73
2022-09-01T06:14:45.583Z,54.89
2022-09-01T06:17:16.276Z,54.71
2022-09-01T06:19:45.948Z,54.37
2022-09-01T06:22:13.516Z,54.26
2022-09-01T06:24:43.648Z,54.08
2022-09-01T06:27:13.196Z,53.76
2022-09-01T06:29:41.597Z,53.17
2022-09-01T06:32:10.675Z,52.76
2022-09-01T06:34:42.368Z,53.10
2022-09-01T06:37:12.916Z,53.80
2022-09-01T06:39:41.242Z,54.02
2022-09-01T06:42:09.470Z,53.46
2022-09-01T06:44:40.783Z,52.42
2022-09-01T06:47:08.985Z,51.17
2022-09-01T06:49:40.074Z,52.01
2022-09-01T06:52:07.722Z,51.89
2022-09-01T06:54:39.526Z,52.24
2022-09-01T06:59:55.069Z,51.86
2022-09-01T07:02:26.550Z,51.47
2022-09-01T07:04:55.503Z,51.62
2022-09-01T07:10:21.417Z,51.55
2022-09-01T07:13:05.653Z,50.58
2022-09-01T07:16:32.065Z,51.17
2022-09-01T07:18:25.117Z,50.18
2022-09-01T07:21:36.186Z,50.16
2022-09-01T07:24:07.913Z,50.23
2022-09-01T07:26:35.531Z,49.18
2022-09-01T07:29:06.286Z,49.11
2022-09-01T07:34:46.079Z,49.14
2022-09-01T07:37:17.295Z,48.96
2022-09-01T07:45:31.249Z,48.95
2022-09-01T07:48:03.068Z,48.46
2022-09-01T07:50:41.336Z,48.09
2022-09-01T07:53:22.627Z,47.40
2022-09-01T07:55:51.875Z,47.71
2022-09-01T07:58:22.264Z,47.59
2022-09-01T08:00:49.957Z,47.46
2022-09-01T08:03:20.473Z,47.18
2022-09-01T08:05:51.254Z,46.98
2022-09-01T08:08:19.237Z,47.12
2022-09-01T08:10:49.418Z,46.65
2022-09-01T08:13:18.978Z,46.73
2022-09-01T08:16:08.521Z,46.76
2022-09-01T08:18:51.601Z,46.74
2022-09-01T08:21:21.980Z,45.98
2022-09-01T08:23:50.291Z,45.76
2022-09-01T08:26:19.644Z,45.77
2022-09-01T08:28:55.071Z,45.46
2022-09-01T08:31:30.788Z,45.66
2022-09-01T08:33:59.951Z,44.97
2022-09-01T08:36:27.592Z,45.21
2022-09-01T08:38:55.431Z,45.06
2022-09-01T08:41:46.773Z,45.25
2022-09-01T08:44:25.952Z,44.36
2022-09-01T08:47:00.923Z,44.48
2022-09-01T08:49:29.211Z,44.23
2022-09-01T08:52:03.371Z,42.67
2022-09-01T08:54:37.987Z,42.19
2022-09-01T08:57:08.160Z,42.89
2022-09-01T08:59:35.718Z,42.98
2022-09-01T09:02:22.823Z,42.83
2022-09-01T09:04:57.182Z,42.45
2022-09-01T09:07:37.532Z,43.03
2022-09-01T09:10:12.866Z,42.18
2022-09-01T09:12:53.174Z,42.06
2022-09-01T09:15:33.876Z,41.32
2022-09-01T09:18:20.020Z,41.88
2022-09-01T09:21:09.529Z,41.37
2022-09-01T09:23:43.087Z,41.79
2022-09-01T09:26:10.955Z,40.95
2022-09-01T09:28:40.045Z,41.31
2022-09-01T09:31:28.512Z,41.11
2022-09-01T09:33:59.105Z,40.50
2022-09-01T09:36:32.752Z,40.25
2022-09-01T09:39:10.668Z,40.92
2022-09-01T09:41:39.899Z,41.04
2022-09-01T09:44:18.525Z,40.59
2022-09-01T09:46:47.704Z,40.68
2022-09-01T09:49:36.123Z,40.57
2022-09-01T09:52:16.685Z,40.37
2022-09-01T09:55:00.578Z,40.22
2022-09-01T09:57:30.684Z,41.12
2022-09-01T10:00:03.351Z,40.52
2022-09-01T10:02:34.602Z,39.34
2022-09-01T10:05:24.857Z,40.08
2022-09-01T10:07:53.174Z,39.50
2022-09-01T10:10:31.498Z,39.27
2022-09-01T10:13:00.604Z,39.32
2022-09-01T10:15:33.307Z,39.20
2022-09-01T10:18:20.751Z,39.57
2022-09-01T10:20:57.364Z,39.81
2022-09-01T10:23:27.650Z,39.24
2022-09-01T10:26:05.975Z,38.61
2022-09-01T10:28:36.254Z,38.61
2022-09-01T10:31:05.232Z,38.24
2022-09-01T10:33:37.061Z,37.71
2022-09-01T10:36:08.328Z,37.74
2022-09-01T10:38:36.249Z,37.96
2022-09-01T10:41:14.726Z,37.67
2022-09-01T10:43:45.262Z,38.02
2022-09-01T10:46:50.435Z,37.43
2022-09-01T10:49:51.531Z,37.36
2022-09-01T10:52:55.866Z,36.89
2022-09-01T10:55:26.980Z,36.88
2022-09-01T11:01:13.432Z,35.63
2022-09-01T11:04:02.575Z,35.71
2022-09-01T11:07:14.446Z,35.35
2022-09-01T11:09:45.669Z,34.57
2022-09-01T11:12:29.724Z,35.25
2022-09-01T11:14:59.859Z,35.53
2022-09-01T11:17:30.873Z,35.23
2022-09-01T11:20:08.769Z,34.96
2022-09-01T11:22:39.352Z,35.63
2022-09-01T11:25:43.859Z,34.81
2022-09-01T11:28:43.514Z,35.02
2022-09-01T11:31:38.921Z,33.37
2022-09-01T11:34:14.005Z,33.08
2022-09-01T11:36:53.899Z,33.16
2022-09-01T11:39:32.596Z,33.23
2022-09-01T11:42:05.627Z,33.25
2022-09-01T11:44:40.101Z,33.94
2022-09-01T11:47:16.141Z,32.96
2022-09-01T11:49:51.088Z,33.24
2022-09-01T11:52:20.653Z,33.65
2022-09-01T11:54:49.214Z,33.33
2022-09-01T11:57:30.508Z,33.68
2022-09-01T12:00:01.660Z,33.86
2022-09-01T12:02:33.458Z,33.79
2022-09-01T12:05:24.983Z,33.00
2022-09-01T12:07:52.688Z,33.67
2022-09-01T12:10:26.261Z,33.33
2022-09-01T12:13:01.894Z,32.41
2022-09-01T12:15:30.973Z,32.80
2022-09-01T12:18:14.840Z,33.44
2022-09-01T12:20:42.855Z,32.62
2022-09-01T12:23:20.266Z,32.67
2022-09-01T12:25:48.298Z,33.81
2022-09-01T12:28:16.852Z,32.20
2022-09-01T12:30:46.072Z,32.72
2022-09-01T12:33:23.510Z,32.29
2022-09-01T12:35:53.979Z,32.65
2022-09-01T12:38:26.168Z,32.64
2022-09-01T12:40:55.172Z,32.76
2022-09-01T12:43:31.916Z,32.33
2022-09-01T12:46:02.929Z,31.90
2022-09-01T12:48:34.021Z,32.35
2022-09-01T12:51:03.819Z,32.67
2022-09-01T12:53:36.594Z,32.14
2022-09-01T12:56:29.716Z,31.69
2022-09-01T12:59:09.599Z,31.92
2022-09-01T13:01:43.526Z,31.79
2022-09-01T13:04:23.925Z,32.75
2022-09-01T13:06:52.484Z,31.06
2022-09-01T13:09:20.118Z,31.64
2022-09-01T13:14:36.027Z,29.83
2022-09-01T13:17:05.908Z,30.32
2022-09-01T13:19:41.731Z,30.16
2022-09-01T13:22:09.351Z,29.49
2022-09-01T13:24:36.963Z,30.10
2022-09-01T13:27:21.025Z,29.79
2022-09-01T13:29:49.301Z,29.38
2022-09-01T13:32:20.813Z,29.89
2022-09-01T13:34:50.781Z,30.09
2022-09-01T13:37:19.791Z,29.71
2022-09-01T13:39:48.380Z,29.65
2022-09-01T13:42:16.688Z,30.23
2022-09-01T13:44:44.540Z,30.41
2022-09-01T13:50:11.433Z,29.36
2022-09-01T13:52:40.837Z,29.65
2022-09-01T13:55:11.426Z,29.50
2022-09-01T13:57:39.333Z,29.39
2022-09-01T14:00:11.060Z,29.10
2022-09-01T14:02:39.781Z,29.01
2022-09-01T14:05:10.221Z,28.90
2022-09-01T14:07:38.064Z,28.72
2022-09-01T14:10:07.509Z,28.38
2022-09-01T14:12:35.374Z,29.07
2022-09-01T14:15:12.280Z,28.94
2022-09-01T14:17:42.882Z,28.46
2022-09-01T14:20:15.193Z,28.56
2022-09-01T14:22:46.287Z,28.83
2022-09-01T14:25:15.069Z,29.04
2022-09-01T14:27:44.759Z,28.47
2022-09-01T14:30:16.711Z,29.22
2022-09-01T14:32:44.630Z,28.67
2022-09-01T14:35:14.780Z,28.77
2022-09-01T14:37:42.415Z,29.07
2022-09-01T14:40:16.439Z,28.50
2022-09-01T14:42:46.477Z,28.47
2022-09-01T14:45:15.968Z,28.54
2022-09-01T14:47:44.150Z,28.93
2022-09-01T14:50:15.946Z,28.37
2022-09-01T14:52:47.078Z,28.28
2022-09-01T14:55:14.987Z,28.89
2022-09-01T14:57:42.539Z,28.87
2022-09-01T15:00:12.974Z,28.39
2022-09-01T15:02:42.186Z,28.33
2022-09-01T15:05:11.722Z,28.14
2022-09-01T15:07:41.548Z,28.05
2022-09-01T15:10:10.921Z,28.21
2022-09-01T15:12:52.727Z,28.46
2022-09-01T15:15:20.329Z,28.44
2022-09-01T15:17:47.885Z,28.56
2022-09-01T15:20:32.950Z,28.61
2022-09-01T15:23:02.552Z,27.86
2022-09-01T15:25:30.181Z,27.65
2022-09-01T15:27:57.728Z,28.29
2022-09-01T15:30:25.309Z,27.65
2022-09-01T15:32:54.274Z,27.95
2022-09-01T15:35:23.127Z,28.00
2022-09-01T15:37:52.597Z,27.91
2022-09-01T15:40:21.714Z,27.54
2022-09-01T15:42:49.729Z,28.20
2022-09-01T15:45:20.185Z,27.59
2022-09-01T15:47:48.226Z,28.25
2022-09-01T15:50:21.818Z,27.76
2022-09-01T15:52:52.757Z,27.37
2022-09-01T15:55:24.692Z,28.13
2022-09-01T15:57:54.754Z,27.31
2022-09-01T16:00:23.871Z,27.24
2022-09-01T16:02:54.204Z,27.12
2022-09-01T16:05:21.876Z,27.81
2022-09-01T16:07:51.422Z,27.65
2022-09-01T16:10:19.496Z,28.17
2022-09-01T16:12:49.794Z,27.48
2022-09-01T16:15:19.837Z,28.03
2022-09-01T16:18:13.539Z,28.01
2022-09-01T16:20:50.748Z,28.00
2022-09-01T16:23:20.506Z,28.17
2022-09-01T16:25:48.433Z,28.60
2022-09-01T16:28:26.191Z,28.50
2022-09-01T16:30:59.049Z,29.00
2022-09-01T16:33:26.735Z,28.90
2022-09-01T16:36:08.315Z,28.78
2022-09-01T16:38:46.994Z,29.16
2022-09-01T16:41:28.006Z,28.92
2022-09-01T16:44:06.660Z,28.84
2022-09-01T16:46:43.073Z,29.05
2022-09-01T16:49:19.638Z,28.98
2022-09-01T16:51:58.421Z,29.98
2022-09-01T16:54:37.237Z,30.14
2022-09-01T16:57:09.135Z,29.73
2022-09-01T16:59:51.780Z,29.64
2022-09-01T17:02:35.786Z,29.94
2022-09-01T17:05:13.253Z,30.30
2022-09-01T17:07:50.462Z,30.74
2022-09-01T17:10:27.518Z,30.67
2022-09-01T17:12:56.792Z,30.92
2022-09-01T17:15:31.497Z,31.17
2022-09-01T17:18:09.143Z,31.20
2022-09-01T17:20:57.983Z,31.40
2022-09-01T17:23:29.125Z,31.33
2022-09-01T17:26:01.577Z,31.64
2022-09-01T17:28:35.513Z,31.88
2022-09-01T17:31:14.450Z,31.90
2022-09-01T17:33:56.833Z,31.90
2022-09-01T17:36:41.298Z,32.28
2022-09-01T17:39:20.609Z,32.13
2022-09-01T17:41:55.569Z,32.36
2022-09-01T17:44:35.561Z,32.67
2022-09-01T17:47:12.507Z,32.38
2022-09-01T17:49:48.596Z,32.53
2022-09-01T17:52:24.156Z,32.87
2022-09-01T17:54:59.896Z,32.86
2022-09-01T17:57:33.724Z,33.35
2022-09-01T18:00:06.932Z,33.40
2022-09-01T18:03:04.648Z,33.21
2022-09-01T18:05:40.368Z,33.11
2022-09-01T18:08:30.239Z,33.05
2022-09-01T18:11:01.000Z,33.29
2022-09-01T18:13:52.494Z,32.92
2022-09-01T18:16:25.581Z,33.17
2022-09-01T18:18:54.928Z,33.25
2022-09-01T18:21:26.127Z,34.31
2022-09-01T18:23:58.844Z,34.49
2022-09-01T18:26:32.268Z,34.22
2022-09-01T18:29:01.675Z,34.47
2022-09-01T18:32:00.227Z,34.04
2022-09-01T18:34:46.586Z,33.57
2022-09-01T18:37:20.858Z,33.98
2022-09-01T18:39:58.356Z,33.70
2022-09-01T18:42:32.759Z,33.63
2022-09-01T18:45:07.085Z,33.87
2022-09-01T18:47:37.575Z,34.06
2022-09-01T18:50:15.212Z,33.88
2022-09-01T18:52:53.798Z,33.96
2022-09-01T18:55:27.974Z,34.00
2022-09-01T18:57:58.916Z,33.59
2022-09-01T19:00:31.489Z,33.46
2022-09-01T19:03:12.146Z,33.92
2022-09-01T19:05:52.566Z,33.75
2022-09-01T19:08:27.851Z,33.47
2022-09-01T19:11:02.322Z,33.86
2022-09-01T19:13:47.163Z,34.15
2022-09-01T19:16:26.994Z,34.33
2022-09-01T19:19:01.448Z,34.41
2022-09-01T19:21:33.117Z,34.41
2022-09-01T19:24:07.373Z,34.46
2022-09-01T19:26:40.192Z,34.75
2022-09-01T19:29:13.506Z,34.60
2022-09-01T19:31:45.157Z,34.48
2022-09-01T19:34:16.375Z,35.19
2022-09-01T19:36:47.717Z,34.46
2022-09-01T19:39:18.221Z,34.38
2022-09-01T19:41:52.172Z,34.91
2022-09-01T19:44:27.434Z,34.72
2022-09-01T19:47:04.074Z,34.47
2022-09-01T19:49:39.410Z,34.93
2022-09-01T19:52:15.861Z,34.86
2022-09-01T19:54:51.938Z,34.64
2022-09-01T19:57:26.806Z,34.69
2022-09-01T20:00:02.740Z,34.48
2022-09-01T20:02:33.252Z,34.56
2022-09-01T20:05:08.685Z,34.66
2022-09-01T20:07:44.036Z,34.71
2022-09-01T20:10:23.146Z,34.85
2022-09-01T20:13:05.284Z,35.73
2022-09-01T20:15:41.079Z,35.17
2022-09-01T20:18:13.744Z,34.60
2022-09-01T20:20:46.036Z,35.18
2022-09-01T20:23:27.268Z,35.29
2022-09-01T20:26:00.119Z,35.49
2022-09-01T20:28:35.821Z,35.63
2022-09-01T20:31:08.386Z,36.11
2022-09-01T20:33:41.934Z,36.32
2022-09-01T20:36:15.561Z,36.35
2022-09-01T20:39:10.956Z,36.73
2022-09-01T20:41:43.894Z,36.81
2022-09-01T20:44:16.982Z,36.59
2022-09-01T20:46:44.544Z,36.89
2022-09-01T20:49:16.829Z,37.01
2022-09-01T20:51:54.630Z,37.04
2022-09-01T20:54:34.965Z,36.57
2022-09-01T20:57:11.863Z,37.05
2022-09-01T20:59:46.361Z,37.18
2022-09-01T21:02:28.834Z,37.81
2022-09-01T21:05:03.570Z,38.48
2022-09-01T21:07:36.242Z,38.38
2022-09-01T21:10:15.542Z,38.91
2022-09-01T21:12:49.644Z,38.58
2022-09-01T21:15:30.114Z,38.58
2022-09-01T21:18:12.560Z,38.63
2022-09-01T21:20:56.705Z,39.56
2022-09-01T21:23:26.124Z,39.28
2022-09-01T21:25:55.233Z,39.10
2022-09-01T21:28:26.307Z,39.07
2022-09-01T21:30:57.097Z,39.01
2022-09-01T21:33:27.120Z,39.27
2022-09-01T21:35:55.221Z,39.55
2022-09-01T21:38:23.020Z,39.62
2022-09-01T21:40:52.962Z,39.44
2022-09-01T21:43:24.759Z,39.39
2022-09-01T21:45:52.683Z,39.49
2022-09-01T21:48:20.852Z,39.35
2022-09-01T21:50:48.559Z,39.63
2022-09-01T21:53:16.210Z,40.01
2022-09-01T21:55:43.834Z,40.23
2022-09-01T21:58:11.699Z,40.00
2022-09-01T22:00:43.234Z,40.15
2022-09-01T22:03:12.023Z,39.85
2022-09-01T22:05:42.164Z,39.54
2022-09-01T22:08:12.038Z,39.44
2022-09-01T22:10:44.575Z,39.85
2022-09-01T22:13:12.289Z,40.30
2022-09-01T22:15:45.305Z,40.01
2022-09-01T22:18:14.153Z,40.44
2022-09-01T22:20:42.238Z,41.01
2022-09-01T22:23:10.666Z,40.28
2022-09-01T22:25:42.272Z,41.09
2022-09-01T22:28:10.686Z,40.78
2022-09-01T22:30:44.444Z,40.72
2022-09-01T22:33:15.926Z,41.18
2022-09-01T22:35:44.405Z,41.46
2022-09-01T22:38:12.632Z,41.34
2022-09-01T22:40:44.650Z,42.17
2022-09-01T22:43:12.293Z,41.78
2022-09-01T22:45:42.128Z,42.33
2022-09-01T22:48:09.878Z,42.11
2022-09-01T22:50:40.930Z,42.17
2022-09-01T22:53:09.309Z,42.36
2022-09-01T22:55:37.910Z,42.44
2022-09-01T22:58:06.747Z,41.65
2022-09-01T23:00:35.055Z,42.27
2022-09-01T23:03:03.226Z,42.62
2022-09-01T23:05:31.394Z,42.19
2022-09-01T23:08:00.286Z,41.79
2022-09-01T23:10:28.586Z,41.42
2022-09-01T23:12:56.386Z,41.08
2022-09-01T23:15:23.939Z,41.01
2022-09-01T23:17:51.514Z,40.91
2022-09-01T23:20:19.105Z,40.57
2022-09-01T23:22:47.248Z,40.68
2022-09-01T23:25:17.316Z,40.85
2022-09-01T23:27:44.906Z,41.44
2022-09-01T23:30:15.232Z,41.32
2022-09-01T23:32:42.919Z,41.37
2022-09-01T23:35:11.672Z,40.97
2022-09-01T23:37:39.284Z,41.32
2022-09-01T23:40:08.941Z,41.30
2022-09-01T23:42:37.859Z,41.86
2022-09-01T23:45:06.764Z,41.92
2022-09-01T23:47:35.591Z,42.70
2022-09-01T23:50:03.402Z,42.66
2022-09-01T23:52:31.201Z,42.62
2022-09-01T23:54:59.708Z,42.40
2022-09-01T23:57:27.435Z,43.29
2022-09-01T23:59:58.091Z,43.23
